sensor_id;sensor_type;location;lat;lon;timestamp;P1;durP1;ratioP1;P2;durP2;ratioP2
38240;SDS011;24037;49.536;8.500;2022-11-15T00:01:54;9.27;;;2.97;;
38240;SDS011;24037;49.536;8.500;2022-11-15T00:04:38;5.20;;;3.33;;
38240;SDS011;24037;49.536;8.500;2022-11-15T00:07:23;9.43;;;3.97;;
38240;SDS011;24037;49.536;8.500;2022-11-15T00:10:08;6.30;;;3.50;;
38240;SDS011;24037;49.536;8.500;2022-11-15T00:12:53;8.50;;;3.63;;
38240;SDS011;24037;49.536;8.500;2022-11-15T00:15:38;10.95;;;2.97;;
38240;SDS011;24037;49.536;8.500;2022-11-15T00:18:23;4.30;;;2.97;;
38240;SDS011;24037;49.536;8.500;2022-11-15T00:21:09;5.90;;;3.38;;
38240;SDS011;24037;49.536;8.500;2022-11-15T00:23:55;5.88;;;3.10;;
38240;SDS011;24037;49.536;8.500;2022-11-15T00:26:40;5.63;;;2.60;;
38240;SDS011;24037;49.536;8.500;2022-11-15T00:29:24;5.60;;;3.08;;
38240;SDS011;24037;49.536;8.500;2022-11-15T00:32:09;5.35;;;3.05;;
38240;SDS011;24037;49.536;8.500;2022-11-15T00:34:54;5.40;;;2.88;;
38240;SDS011;24037;49.536;8.500;2022-11-15T00:37:39;6.45;;;3.22;;
38240;SDS011;24037;49.536;8.500;2022-11-15T00:40:23;5.25;;;3.05;;
38240;SDS011;24037;49.536;8.500;2022-11-15T00:43:08;6.38;;;3.05;;
38240;SDS011;24037;49.536;8.500;2022-11-15T00:45:52;5.25;;;3.45;;
38240;SDS011;24037;49.536;8.500;2022-11-15T00:48:37;5.90;;;2.90;;
38240;SDS011;24037;49.536;8.500;2022-11-15T00:51:22;6.65;;;3.40;;
38240;SDS011;24037;49.536;8.500;2022-11-15T00:54:06;5.70;;;3.53;;
38240;SDS011;24037;49.536;8.500;2022-11-15T00:56:51;5.53;;;3.60;;
38240;SDS011;24037;49.536;8.500;2022-11-15T00:59:35;5.82;;;3.10;;
38240;SDS011;24037;49.536;8.500;2022-11-15T01:02:20;8.50;;;5.60;;
38240;SDS011;24037;49.536;8.500;2022-11-15T01:05:05;7.05;;;3.60;;
38240;SDS011;24037;49.536;8.500;2022-11-15T01:07:53;6.22;;;3.17;;
38240;SDS011;24037;49.536;8.500;2022-11-15T01:10:39;7.13;;;3.35;;
38240;SDS011;24037;49.536;8.500;2022-11-15T01:13:24;5.05;;;2.90;;
38240;SDS011;24037;49.536;8.500;2022-11-15T01:16:10;6.60;;;3.22;;
38240;SDS011;24037;49.536;8.500;2022-11-15T01:18:56;6.78;;;3.05;;
38240;SDS011;24037;49.536;8.500;2022-11-15T01:21:41;4.85;;;2.88;;
38240;SDS011;24037;49.536;8.500;2022-11-15T01:24:26;4.85;;;3.05;;
38240;SDS011;24037;49.536;8.500;2022-11-15T01:27:11;4.85;;;3.20;;
38240;SDS011;24037;49.536;8.500;2022-11-15T01:29:55;7.22;;;3.42;;
38240;SDS011;24037;49.536;8.500;2022-11-15T01:32:40;3.72;;;2.45;;
38240;SDS011;24037;49.536;8.500;2022-11-15T01:35:24;5.32;;;3.15;;
38240;SDS011;24037;49.536;8.500;2022-11-15T01:38:09;7.13;;;2.90;;
38240;SDS011;24037;49.536;8.500;2022-11-15T01:40:53;5.45;;;3.15;;
38240;SDS011;24037;49.536;8.500;2022-11-15T01:43:38;4.18;;;2.78;;
38240;SDS011;24037;49.536;8.500;2022-11-15T01:49:14;3.85;;;2.90;;
38240;SDS011;24037;49.536;8.500;2022-11-15T01:52:07;4.50;;;3.13;;
38240;SDS011;24037;49.536;8.500;2022-11-15T01:55:19;5.63;;;3.50;;
38240;SDS011;24037;49.536;8.500;2022-11-15T01:58:04;5.68;;;3.42;;
38240;SDS011;24037;49.536;8.500;2022-11-15T02:00:49;5.03;;;2.80;;
38240;SDS011;24037;49.536;8.500;2022-11-15T02:03:38;4.55;;;2.70;;
38240;SDS011;24037;49.536;8.500;2022-11-15T02:06:33;4.97;;;3.20;;
38240;SDS011;24037;49.536;8.500;2022-11-15T02:09:19;4.68;;;2.45;;
38240;SDS011;24037;49.536;8.500;2022-11-15T02:12:05;5.80;;;3.22;;
38240;SDS011;24037;49.536;8.500;2022-11-15T02:14:53;7.38;;;2.83;;
38240;SDS011;24037;49.536;8.500;2022-11-15T02:24:11;4.15;;;2.95;;
38240;SDS011;24037;49.536;8.500;2022-11-15T02:27:28;7.25;;;3.47;;
38240;SDS011;24037;49.536;8.500;2022-11-15T02:30:45;6.47;;;3.30;;
38240;SDS011;24037;49.536;8.500;2022-11-15T02:36:49;5.18;;;2.80;;
38240;SDS011;24037;49.536;8.500;2022-11-15T02:43:09;4.68;;;2.83;;
38240;SDS011;24037;49.536;8.500;2022-11-15T02:46:18;8.43;;;2.90;;
38240;SDS011;24037;49.536;8.500;2022-11-15T02:49:04;4.63;;;2.80;;
38240;SDS011;24037;49.536;8.500;2022-11-15T02:51:49;7.20;;;2.97;;
38240;SDS011;24037;49.536;8.500;2022-11-15T02:54:35;5.88;;;2.95;;
38240;SDS011;24037;49.536;8.500;2022-11-15T02:57:21;6.65;;;3.72;;
38240;SDS011;24037;49.536;8.500;2022-11-15T03:00:17;5.53;;;3.08;;
38240;SDS011;24037;49.536;8.500;2022-11-15T03:06:09;6.20;;;3.67;;
38240;SDS011;24037;49.536;8.500;2022-11-15T03:09:03;4.28;;;3.00;;
38240;SDS011;24037;49.536;8.500;2022-11-15T03:11:54;7.43;;;3.03;;
38240;SDS011;24037;49.536;8.500;2022-11-15T03:14:48;4.90;;;3.30;;
38240;SDS011;24037;49.536;8.500;2022-11-15T03:17:43;4.60;;;3.20;;
38240;SDS011;24037;49.536;8.500;2022-11-15T03:20:42;5.32;;;2.83;;
38240;SDS011;24037;49.536;8.500;2022-11-15T03:23:28;7.18;;;3.33;;
38240;SDS011;24037;49.536;8.500;2022-11-15T03:26:15;5.65;;;3.33;;
38240;SDS011;24037;49.536;8.500;2022-11-15T03:29:04;4.47;;;2.78;;
38240;SDS011;24037;49.536;8.500;2022-11-15T03:31:55;3.78;;;2.55;;
38240;SDS011;24037;49.536;8.500;2022-11-15T03:34:45;4.63;;;2.90;;
38240;SDS011;24037;49.536;8.500;2022-11-15T03:37:40;5.97;;;2.83;;
38240;SDS011;24037;49.536;8.500;2022-11-15T03:43:50;7.18;;;3.03;;
38240;SDS011;24037;49.536;8.500;2022-11-15T03:46:47;5.72;;;2.72;;
38240;SDS011;24037;49.536;8.500;2022-11-15T03:49:44;4.55;;;2.30;;
38240;SDS011;24037;49.536;8.500;2022-11-15T03:52:34;7.82;;;2.50;;
38240;SDS011;24037;49.536;8.500;2022-11-15T03:55:20;5.30;;;2.95;;
38240;SDS011;24037;49.536;8.500;2022-11-15T03:58:05;10.77;;;3.47;;
38240;SDS011;24037;49.536;8.500;2022-11-15T04:00:50;6.63;;;3.22;;
38240;SDS011;24037;49.536;8.500;2022-11-15T04:03:35;7.30;;;2.88;;
38240;SDS011;24037;49.536;8.500;2022-11-15T04:06:19;5.57;;;2.80;;
38240;SDS011;24037;49.536;8.500;2022-11-15T04:09:04;4.93;;;2.30;;
38240;SDS011;24037;49.536;8.500;2022-11-15T04:11:49;4.30;;;3.00;;
38240;SDS011;24037;49.536;8.500;2022-11-15T04:14:33;3.65;;;2.58;;
38240;SDS011;24037;49.536;8.500;2022-11-15T04:17:18;6.18;;;2.67;;
38240;SDS011;24037;49.536;8.500;2022-11-15T04:20:03;6.93;;;3.45;;
38240;SDS011;24037;49.536;8.500;2022-11-15T04:23:11;5.13;;;2.90;;
38240;SDS011;24037;49.536;8.500;2022-11-15T04:26:25;4.20;;;2.58;;
38240;SDS011;24037;49.536;8.500;2022-11-15T04:29:10;5.95;;;3.13;;
38240;SDS011;24037;49.536;8.500;2022-11-15T04:32:13;6.68;;;2.78;;
38240;SDS011;24037;49.536;8.500;2022-11-15T04:34:57;5.63;;;3.13;;
38240;SDS011;24037;49.536;8.500;2022-11-15T04:37:42;5.00;;;3.22;;
38240;SDS011;24037;49.536;8.500;2022-11-15T04:40:27;6.03;;;3.42;;
38240;SDS011;24037;49.536;8.500;2022-11-15T04:43:12;5.72;;;2.90;;
38240;SDS011;24037;49.536;8.500;2022-11-15T04:45:56;6.07;;;4.32;;
38240;SDS011;24037;49.536;8.500;2022-11-15T04:48:41;6.60;;;3.45;;
38240;SDS011;24037;49.536;8.500;2022-11-15T04:51:25;8.10;;;3.50;;
38240;SDS011;24037;49.536;8.500;2022-11-15T04:54:10;6.10;;;3.60;;
38240;SDS011;24037;49.536;8.500;2022-11-15T04:56:54;6.50;;;3.75;;
38240;SDS011;24037;49.536;8.500;2022-11-15T04:59:39;5.15;;;3.67;;
38240;SDS011;24037;49.536;8.500;2022-11-15T05:02:23;9.65;;;5.60;;
38240;SDS011;24037;49.536;8.500;2022-11-15T05:05:28;6.93;;;3.63;;
38240;SDS011;24037;49.536;8.500;2022-11-15T05:08:12;7.80;;;3.50;;
38240;SDS011;24037;49.536;8.500;2022-11-15T05:10:57;7.68;;;5.15;;
38240;SDS011;24037;49.536;8.500;2022-11-15T05:13:41;5.43;;;3.78;;
38240;SDS011;24037;49.536;8.500;2022-11-15T05:16:26;5.90;;;3.83;;
38240;SDS011;24037;49.536;8.500;2022-11-15T05:19:10;6.07;;;3.70;;
38240;SDS011;24037;49.536;8.500;2022-11-15T05:21:55;8.25;;;3.97;;
38240;SDS011;24037;49.536;8.500;2022-11-15T05:24:39;5.60;;;3.22;;
38240;SDS011;24037;49.536;8.500;2022-11-15T05:27:24;5.95;;;3.58;;
38240;SDS011;24037;49.536;8.500;2022-11-15T05:30:09;6.20;;;3.50;;
38240;SDS011;24037;49.536;8.500;2022-11-15T05:32:54;7.68;;;3.90;;
38240;SDS011;24037;49.536;8.500;2022-11-15T05:35:40;6.80;;;3.88;;
38240;SDS011;24037;49.536;8.500;2022-11-15T05:38:28;5.57;;;3.65;;
38240;SDS011;24037;49.536;8.500;2022-11-15T05:41:13;6.90;;;3.95;;
38240;SDS011;24037;49.536;8.500;2022-11-15T05:43:59;6.10;;;3.97;;
38240;SDS011;24037;49.536;8.500;2022-11-15T05:46:47;7.32;;;3.80;;
38240;SDS011;24037;49.536;8.500;2022-11-15T05:49:33;6.07;;;3.50;;
38240;SDS011;24037;49.536;8.500;2022-11-15T05:52:22;5.30;;;3.30;;
38240;SDS011;24037;49.536;8.500;2022-11-15T05:55:09;8.55;;;4.95;;
38240;SDS011;24037;49.536;8.500;2022-11-15T05:57:55;13.60;;;6.05;;
38240;SDS011;24037;49.536;8.500;2022-11-15T06:00:39;7.80;;;6.00;;
38240;SDS011;24037;49.536;8.500;2022-11-15T06:03:24;6.22;;;3.45;;
38240;SDS011;24037;49.536;8.500;2022-11-15T06:06:09;5.40;;;3.40;;
38240;SDS011;24037;49.536;8.500;2022-11-15T06:08:54;7.10;;;3.75;;
38240;SDS011;24037;49.536;8.500;2022-11-15T06:11:39;6.97;;;3.38;;
38240;SDS011;24037;49.536;8.500;2022-11-15T06:14:23;5.80;;;3.40;;
38240;SDS011;24037;49.536;8.500;2022-11-15T06:17:08;9.63;;;4.15;;
38240;SDS011;24037;49.536;8.500;2022-11-15T06:19:52;6.47;;;3.20;;
38240;SDS011;24037;49.536;8.500;2022-11-15T06:22:37;7.13;;;3.85;;
38240;SDS011;24037;49.536;8.500;2022-11-15T06:25:21;9.50;;;3.47;;
38240;SDS011;24037;49.536;8.500;2022-11-15T06:28:06;6.80;;;3.60;;
38240;SDS011;24037;49.536;8.500;2022-11-15T06:30:50;5.57;;;3.78;;
38240;SDS011;24037;49.536;8.500;2022-11-15T06:33:35;8.35;;;3.95;;
38240;SDS011;24037;49.536;8.500;2022-11-15T06:36:19;7.13;;;4.32;;
38240;SDS011;24037;49.536;8.500;2022-11-15T06:39:05;6.05;;;3.63;;
38240;SDS011;24037;49.536;8.500;2022-11-15T06:41:49;8.10;;;3.70;;
38240;SDS011;24037;49.536;8.500;2022-11-15T06:44:34;7.40;;;3.20;;
38240;SDS011;24037;49.536;8.500;2022-11-15T06:47:18;7.82;;;4.03;;
38240;SDS011;24037;49.536;8.500;2022-11-15T06:50:03;6.30;;;3.38;;
38240;SDS011;24037;49.536;8.500;2022-11-15T06:52:48;6.28;;;3.00;;
38240;SDS011;24037;49.536;8.500;2022-11-15T06:55:32;7.25;;;3.40;;
38240;SDS011;24037;49.536;8.500;2022-11-15T06:58:17;4.68;;;2.83;;
38240;SDS011;24037;49.536;8.500;2022-11-15T07:01:06;6.47;;;2.63;;
38240;SDS011;24037;49.536;8.500;2022-11-15T07:03:53;4.90;;;2.92;;
38240;SDS011;24037;49.536;8.500;2022-11-15T07:06:37;7.25;;;3.10;;
38240;SDS011;24037;49.536;8.500;2022-11-15T07:09:21;5.63;;;2.90;;
38240;SDS011;24037;49.536;8.500;2022-11-15T07:12:06;28.50;;;16.58;;
38240;SDS011;24037;49.536;8.500;2022-11-15T07:14:50;25.10;;;13.50;;
38240;SDS011;24037;49.536;8.500;2022-11-15T07:17:35;20.83;;;11.10;;
38240;SDS011;24037;49.536;8.500;2022-11-15T07:20:19;27.27;;;16.58;;
38240;SDS011;24037;49.536;8.500;2022-11-15T07:23:04;25.40;;;14.63;;
38240;SDS011;24037;49.536;8.500;2022-11-15T07:25:49;27.52;;;17.50;;
38240;SDS011;24037;49.536;8.500;2022-11-15T07:28:34;12.32;;;5.45;;
38240;SDS011;24037;49.536;8.500;2022-11-15T07:31:19;12.80;;;6.85;;
38240;SDS011;24037;49.536;8.500;2022-11-15T07:34:04;12.30;;;5.57;;
38240;SDS011;24037;49.536;8.500;2022-11-15T07:36:49;146.27;;;79.22;;
38240;SDS011;24037;49.536;8.500;2022-11-15T07:39:34;90.95;;;48.70;;
38240;SDS011;24037;49.536;8.500;2022-11-15T07:42:18;64.43;;;42.88;;
38240;SDS011;24037;49.536;8.500;2022-11-15T07:45:22;23.40;;;16.23;;
38240;SDS011;24037;49.536;8.500;2022-11-15T07:48:09;14.57;;;9.80;;
38240;SDS011;24037;49.536;8.500;2022-11-15T07:50:54;22.63;;;13.05;;
38240;SDS011;24037;49.536;8.500;2022-11-15T07:53:39;30.33;;;20.63;;
38240;SDS011;24037;49.536;8.500;2022-11-15T07:56:25;28.58;;;20.70;;
38240;SDS011;24037;49.536;8.500;2022-11-15T07:59:09;29.90;;;26.40;;
38240;SDS011;24037;49.536;8.500;2022-11-15T08:01:53;16.48;;;10.52;;
38240;SDS011;24037;49.536;8.500;2022-11-15T08:04:38;40.58;;;32.55;;
38240;SDS011;24037;49.536;8.500;2022-11-15T08:07:22;11.60;;;9.43;;
38240;SDS011;24037;49.536;8.500;2022-11-15T08:10:07;17.70;;;15.88;;
38240;SDS011;24037;49.536;8.500;2022-11-15T08:12:58;10.45;;;6.18;;
38240;SDS011;24037;49.536;8.500;2022-11-15T08:15:44;20.92;;;15.40;;
38240;SDS011;24037;49.536;8.500;2022-11-15T08:18:29;15.80;;;9.13;;
38240;SDS011;24037;49.536;8.500;2022-11-15T08:21:14;16.23;;;12.18;;
38240;SDS011;24037;49.536;8.500;2022-11-15T08:24:04;18.60;;;13.68;;
38240;SDS011;24037;49.536;8.500;2022-11-15T08:26:49;22.17;;;16.77;;
38240;SDS011;24037;49.536;8.500;2022-11-15T08:29:33;13.20;;;8.38;;
38240;SDS011;24037;49.536;8.500;2022-11-15T08:32:18;14.32;;;10.10;;
38240;SDS011;24037;49.536;8.500;2022-11-15T08:35:02;15.57;;;9.55;;
38240;SDS011;24037;49.536;8.500;2022-11-15T08:37:47;25.77;;;17.27;;
38240;SDS011;24037;49.536;8.500;2022-11-15T08:40:32;22.42;;;15.93;;
38240;SDS011;24037;49.536;8.500;2022-11-15T08:43:16;11.40;;;6.30;;
38240;SDS011;24037;49.536;8.500;2022-11-15T08:46:00;20.42;;;17.80;;
38240;SDS011;24037;49.536;8.500;2022-11-15T08:48:46;16.60;;;14.55;;
38240;SDS011;24037;49.536;8.500;2022-11-15T08:51:30;7.63;;;5.55;;
38240;SDS011;24037;49.536;8.500;2022-11-15T08:54:14;14.75;;;10.23;;
38240;SDS011;24037;49.536;8.500;2022-11-15T08:56:59;14.02;;;9.43;;
38240;SDS011;24037;49.536;8.500;2022-11-15T08:59:44;10.77;;;4.47;;
38240;SDS011;24037;49.536;8.500;2022-11-15T09:02:28;18.80;;;13.25;;
38240;SDS011;24037;49.536;8.500;2022-11-15T09:05:13;15.55;;;11.30;;
38240;SDS011;24037;49.536;8.500;2022-11-15T09:07:59;9.88;;;6.38;;
38240;SDS011;24037;49.536;8.500;2022-11-15T09:10:44;8.65;;;4.97;;
38240;SDS011;24037;49.536;8.500;2022-11-15T09:13:29;10.00;;;6.50;;
38240;SDS011;24037;49.536;8.500;2022-11-15T09:16:14;10.18;;;9.13;;
38240;SDS011;24037;49.536;8.500;2022-11-15T09:18:59;6.82;;;5.00;;
38240;SDS011;24037;49.536;8.500;2022-11-15T09:21:44;14.95;;;13.55;;
38240;SDS011;24037;49.536;8.500;2022-11-15T09:24:28;7.80;;;5.05;;
38240;SDS011;24037;49.536;8.500;2022-11-15T09:27:13;5.03;;;2.90;;
38240;SDS011;24037;49.536;8.500;2022-11-15T09:29:57;4.75;;;3.17;;
38240;SDS011;24037;49.536;8.500;2022-11-15T09:32:41;4.38;;;2.83;;
38240;SDS011;24037;49.536;8.500;2022-11-15T09:35:26;7.60;;;3.47;;
38240;SDS011;24037;49.536;8.500;2022-11-15T09:38:10;6.30;;;3.20;;
38240;SDS011;24037;49.536;8.500;2022-11-15T09:52:41;8.25;;;2.92;;
38240;SDS011;24037;49.536;8.500;2022-11-15T09:55:10;3.90;;;2.17;;
38240;SDS011;24037;49.536;8.500;2022-11-15T10:02:49;4.25;;;2.42;;
38240;SDS011;24037;49.536;8.500;2022-11-15T10:05:27;5.38;;;3.40;;
38240;SDS011;24037;49.536;8.500;2022-11-15T10:07:58;6.20;;;2.85;;
38240;SDS011;24037;49.536;8.500;2022-11-15T10:10:43;4.13;;;2.63;;
38240;SDS011;24037;49.536;8.500;2022-11-15T10:13:22;8.90;;;7.13;;
38240;SDS011;24037;49.536;8.500;2022-11-15T10:15:50;8.60;;;7.70;;
38240;SDS011;24037;49.536;8.500;2022-11-15T10:18:34;5.70;;;3.22;;
38240;SDS011;24037;49.536;8.500;2022-11-15T10:24:12;7.50;;;2.83;;
38240;SDS011;24037;49.536;8.500;2022-11-15T10:26:47;8.63;;;2.72;;
38240;SDS011;24037;49.536;8.500;2022-11-15T10:29:20;7.47;;;3.88;;
38240;SDS011;24037;49.536;8.500;2022-11-15T10:31:47;14.25;;;7.82;;
38240;SDS011;24037;49.536;8.500;2022-11-15T10:34:15;7.63;;;3.28;;
38240;SDS011;24037;49.536;8.500;2022-11-15T10:36:44;6.43;;;3.58;;
38240;SDS011;24037;49.536;8.500;2022-11-15T10:39:12;4.88;;;3.10;;
38240;SDS011;24037;49.536;8.500;2022-11-15T10:41:40;5.20;;;2.70;;
38240;SDS011;24037;49.536;8.500;2022-11-15T10:49:21;6.55;;;2.67;;
38240;SDS011;24037;49.536;8.500;2022-11-15T10:51:55;4.40;;;2.47;;
38240;SDS011;24037;49.536;8.500;2022-11-15T10:54:37;5.90;;;2.70;;
38240;SDS011;24037;49.536;8.500;2022-11-15T10:57:15;4.25;;;2.30;;
38240;SDS011;24037;49.536;8.500;2022-11-15T11:00:04;5.07;;;2.55;;
38240;SDS011;24037;49.536;8.500;2022-11-15T11:02:38;3.63;;;2.20;;
38240;SDS011;24037;49.536;8.500;2022-11-15T11:08:00;4.57;;;2.00;;
38240;SDS011;24037;49.536;8.500;2022-11-15T11:10:30;5.00;;;2.30;;
38240;SDS011;24037;49.536;8.500;2022-11-15T11:13:11;5.38;;;3.35;;
38240;SDS011;24037;49.536;8.500;2022-11-15T11:15:39;7.75;;;5.00;;
38240;SDS011;24037;49.536;8.500;2022-11-15T11:18:33;8.35;;;5.45;;
38240;SDS011;24037;49.536;8.500;2022-11-15T11:21:11;8.23;;;5.22;;
38240;SDS011;24037;49.536;8.500;2022-11-15T11:23:46;5.28;;;4.22;;
38240;SDS011;24037;49.536;8.500;2022-11-15T11:29:23;3.20;;;1.90;;
38240;SDS011;24037;49.536;8.500;2022-11-15T11:37:52;5.93;;;3.05;;
38240;SDS011;24037;49.536;8.500;2022-11-15T11:46:11;4.80;;;3.72;;
38240;SDS011;24037;49.536;8.500;2022-11-15T11:49:07;4.43;;;2.63;;
38240;SDS011;24037;49.536;8.500;2022-11-15T11:51:38;5.72;;;2.22;;
38240;SDS011;24037;49.536;8.500;2022-11-15T11:56:52;7.90;;;2.10;;
38240;SDS011;24037;49.536;8.500;2022-11-15T11:59:28;4.15;;;1.80;;
38240;SDS011;24037;49.536;8.500;2022-11-15T12:02:11;2.28;;;1.35;;
38240;SDS011;24037;49.536;8.500;2022-11-15T12:05:08;4.10;;;1.42;;
38240;SDS011;24037;49.536;8.500;2022-11-15T12:07:44;2.92;;;1.30;;
38240;SDS011;24037;49.536;8.500;2022-11-15T12:10:19;3.97;;;1.65;;
38240;SDS011;24037;49.536;8.500;2022-11-15T12:12:54;4.60;;;1.58;;
38240;SDS011;24037;49.536;8.500;2022-11-15T12:15:29;4.25;;;2.30;;
38240;SDS011;24037;49.536;8.500;2022-11-15T12:18:01;2.85;;;1.48;;
38240;SDS011;24037;49.536;8.500;2022-11-15T12:20:29;2.28;;;0.95;;
38240;SDS011;24037;49.536;8.500;2022-11-15T12:23:05;3.47;;;1.88;;
38240;SDS011;24037;49.536;8.500;2022-11-15T12:31:03;2.97;;;1.00;;
38240;SDS011;24037;49.536;8.500;2022-11-15T12:33:46;2.40;;;1.15;;
38240;SDS011;24037;49.536;8.500;2022-11-15T12:38:53;3.55;;;1.10;;
38240;SDS011;24037;49.536;8.500;2022-11-15T12:41:20;3.60;;;1.50;;
38240;SDS011;24037;49.536;8.500;2022-11-15T12:43:54;6.72;;;1.23;;
38240;SDS011;24037;49.536;8.500;2022-11-15T12:48:58;3.78;;;1.60;;
38240;SDS011;24037;49.536;8.500;2022-11-15T13:02:21;4.88;;;1.45;;
38240;SDS011;24037;49.536;8.500;2022-11-15T13:04:54;2.45;;;1.33;;
38240;SDS011;24037;49.536;8.500;2022-11-15T13:17:43;4.25;;;1.55;;
38240;SDS011;24037;49.536;8.500;2022-11-15T13:22:49;4.50;;;3.47;;
38240;SDS011;24037;49.536;8.500;2022-11-15T13:25:30;2.95;;;1.88;;
38240;SDS011;24037;49.536;8.500;2022-11-15T13:30:40;4.53;;;1.40;;
38240;SDS011;24037;49.536;8.500;2022-11-15T13:33:36;3.17;;;1.13;;
38240;SDS011;24037;49.536;8.500;2022-11-15T13:36:06;5.00;;;2.50;;
38240;SDS011;24037;49.536;8.500;2022-11-15T13:38:44;8.82;;;5.28;;
38240;SDS011;24037;49.536;8.500;2022-11-15T13:43:46;40.33;;;22.23;;
38240;SDS011;24037;49.536;8.500;2022-11-15T13:46:17;72.00;;;41.67;;
38240;SDS011;24037;49.536;8.500;2022-11-15T13:49:03;98.28;;;54.88;;
38240;SDS011;24037;49.536;8.500;2022-11-15T13:51:35;13.65;;;7.38;;
38240;SDS011;24037;49.536;8.500;2022-11-15T13:56:38;22.83;;;12.85;;
38240;SDS011;24037;49.536;8.500;2022-11-15T13:59:10;26.73;;;14.85;;
38240;SDS011;24037;49.536;8.500;2022-11-15T14:01:50;117.53;;;65.15;;
38240;SDS011;24037;49.536;8.500;2022-11-15T14:04:22;109.10;;;64.97;;
38240;SDS011;24037;49.536;8.500;2022-11-15T14:06:52;32.45;;;21.10;;
38240;SDS011;24037;49.536;8.500;2022-11-15T14:09:34;16.43;;;9.77;;
38240;SDS011;24037;49.536;8.500;2022-11-15T14:14:49;46.15;;;26.80;;
38240;SDS011;24037;49.536;8.500;2022-11-15T14:17:19;22.08;;;13.38;;
38240;SDS011;24037;49.536;8.500;2022-11-15T14:22:51;17.65;;;10.95;;
38240;SDS011;24037;49.536;8.500;2022-11-15T14:25:20;11.00;;;5.15;;
38240;SDS011;24037;49.536;8.500;2022-11-15T14:30:35;22.50;;;18.02;;
38240;SDS011;24037;49.536;8.500;2022-11-15T14:33:01;7.28;;;4.53;;
38240;SDS011;24037;49.536;8.500;2022-11-15T14:35:42;4.55;;;2.80;;
38240;SDS011;24037;49.536;8.500;2022-11-15T14:38:09;7.22;;;1.83;;
38240;SDS011;24037;49.536;8.500;2022-11-15T14:40:35;4.15;;;2.17;;
38240;SDS011;24037;49.536;8.500;2022-11-15T14:43:01;4.70;;;2.58;;
38240;SDS011;24037;49.536;8.500;2022-11-15T14:45:27;8.02;;;7.22;;
38240;SDS011;24037;49.536;8.500;2022-11-15T14:47:54;8.32;;;4.55;;
38240;SDS011;24037;49.536;8.500;2022-11-15T14:50:20;5.28;;;3.03;;
38240;SDS011;24037;49.536;8.500;2022-11-15T14:52:47;5.07;;;1.83;;
38240;SDS011;24037;49.536;8.500;2022-11-15T14:55:35;3.28;;;2.05;;
38240;SDS011;24037;49.536;8.500;2022-11-15T14:58:02;4.20;;;1.92;;
38240;SDS011;24037;49.536;8.500;2022-11-15T15:00:32;4.13;;;1.67;;
38240;SDS011;24037;49.536;8.500;2022-11-15T15:02:59;6.47;;;3.00;;
38240;SDS011;24037;49.536;8.500;2022-11-15T15:05:27;19.48;;;13.77;;
38240;SDS011;24037;49.536;8.500;2022-11-15T15:07:58;6.05;;;4.20;;
38240;SDS011;24037;49.536;8.500;2022-11-15T15:10:25;12.40;;;8.73;;
38240;SDS011;24037;49.536;8.500;2022-11-15T15:13:04;14.93;;;11.35;;
38240;SDS011;24037;49.536;8.500;2022-11-15T15:15:35;7.78;;;5.85;;
38240;SDS011;24037;49.536;8.500;2022-11-15T15:18:03;6.93;;;4.75;;
38240;SDS011;24037;49.536;8.500;2022-11-15T15:20:34;6.43;;;2.78;;
38240;SDS011;24037;49.536;8.500;2022-11-15T15:23:02;3.80;;;2.80;;
38240;SDS011;24037;49.536;8.500;2022-11-15T15:25:34;3.08;;;2.15;;
38240;SDS011;24037;49.536;8.500;2022-11-15T15:28:01;4.93;;;1.85;;
38240;SDS011;24037;49.536;8.500;2022-11-15T15:30:28;3.03;;;1.73;;
38240;SDS011;24037;49.536;8.500;2022-11-15T15:32:55;4.72;;;2.92;;
38240;SDS011;24037;49.536;8.500;2022-11-15T15:35:22;6.60;;;3.35;;
38240;SDS011;24037;49.536;8.500;2022-11-15T15:37:49;15.48;;;4.88;;
38240;SDS011;24037;49.536;8.500;2022-11-15T15:40:17;16.45;;;6.05;;
38240;SDS011;24037;49.536;8.500;2022-11-15T15:42:48;11.43;;;4.70;;
38240;SDS011;24037;49.536;8.500;2022-11-15T15:45:15;16.92;;;5.47;;
38240;SDS011;24037;49.536;8.500;2022-11-15T15:47:43;20.50;;;7.60;;
38240;SDS011;24037;49.536;8.500;2022-11-15T15:50:23;15.18;;;6.85;;
38240;SDS011;24037;49.536;8.500;2022-11-15T15:52:56;15.77;;;7.43;;
38240;SDS011;24037;49.536;8.500;2022-11-15T15:55:23;10.93;;;7.32;;
38240;SDS011;24037;49.536;8.500;2022-11-15T15:57:50;17.08;;;6.97;;
38240;SDS011;24037;49.536;8.500;2022-11-15T16:00:17;15.85;;;6.95;;
38240;SDS011;24037;49.536;8.500;2022-11-15T16:02:44;11.85;;;5.28;;
38240;SDS011;24037;49.536;8.500;2022-11-15T16:05:11;17.20;;;9.48;;
38240;SDS011;24037;49.536;8.500;2022-11-15T16:07:38;17.02;;;9.57;;
38240;SDS011;24037;49.536;8.500;2022-11-15T16:10:14;13.90;;;7.82;;
38240;SDS011;24037;49.536;8.500;2022-11-15T16:12:44;13.88;;;7.18;;
38240;SDS011;24037;49.536;8.500;2022-11-15T16:15:11;10.95;;;5.50;;
38240;SDS011;24037;49.536;8.500;2022-11-15T16:17:38;24.73;;;13.35;;
38240;SDS011;24037;49.536;8.500;2022-11-15T16:20:15;26.85;;;12.65;;
38240;SDS011;24037;49.536;8.500;2022-11-15T16:23:06;15.45;;;9.27;;
38240;SDS011;24037;49.536;8.500;2022-11-15T16:25:54;7.40;;;5.53;;
38240;SDS011;24037;49.536;8.500;2022-11-15T16:28:28;7.45;;;5.30;;
38240;SDS011;24037;49.536;8.500;2022-11-15T16:30:59;8.35;;;4.70;;
38240;SDS011;24037;49.536;8.500;2022-11-15T16:33:26;11.35;;;6.22;;
38240;SDS011;24037;49.536;8.500;2022-11-15T16:35:52;15.52;;;5.28;;
38240;SDS011;24037;49.536;8.500;2022-11-15T16:38:18;9.82;;;7.50;;
38240;SDS011;24037;49.536;8.500;2022-11-15T16:40:45;31.00;;;20.48;;
38240;SDS011;24037;49.536;8.500;2022-11-15T16:43:11;19.55;;;11.05;;
38240;SDS011;24037;49.536;8.500;2022-11-15T16:45:37;26.13;;;11.98;;
38240;SDS011;24037;49.536;8.500;2022-11-15T16:48:04;26.30;;;13.80;;
38240;SDS011;24037;49.536;8.500;2022-11-15T16:50:32;22.15;;;10.25;;
38240;SDS011;24037;49.536;8.500;2022-11-15T16:53:05;14.55;;;8.27;;
38240;SDS011;24037;49.536;8.500;2022-11-15T16:55:31;18.33;;;9.52;;
38240;SDS011;24037;49.536;8.500;2022-11-15T16:57:59;14.10;;;6.47;;
38240;SDS011;24037;49.536;8.500;2022-11-15T17:00:26;10.75;;;6.53;;
38240;SDS011;24037;49.536;8.500;2022-11-15T17:02:52;14.15;;;7.75;;
38240;SDS011;24037;49.536;8.500;2022-11-15T17:05:21;12.50;;;6.95;;
38240;SDS011;24037;49.536;8.500;2022-11-15T17:07:49;14.93;;;8.50;;
38240;SDS011;24037;49.536;8.500;2022-11-15T17:10:19;17.50;;;8.75;;
38240;SDS011;24037;49.536;8.500;2022-11-15T17:12:47;15.93;;;7.18;;
38240;SDS011;24037;49.536;8.500;2022-11-15T17:15:14;13.10;;;7.10;;
38240;SDS011;24037;49.536;8.500;2022-11-15T17:17:41;11.73;;;6.13;;
38240;SDS011;24037;49.536;8.500;2022-11-15T17:20:15;14.35;;;10.57;;
38240;SDS011;24037;49.536;8.500;2022-11-15T17:22:42;5.18;;;3.03;;
38240;SDS011;24037;49.536;8.500;2022-11-15T17:25:09;10.23;;;4.57;;
38240;SDS011;24037;49.536;8.500;2022-11-15T17:27:35;16.25;;;8.45;;
38240;SDS011;24037;49.536;8.500;2022-11-15T17:30:02;10.18;;;6.70;;
38240;SDS011;24037;49.536;8.500;2022-11-15T17:32:30;7.35;;;5.43;;
38240;SDS011;24037;49.536;8.500;2022-11-15T17:34:56;7.50;;;3.03;;
38240;SDS011;24037;49.536;8.500;2022-11-15T17:37:22;4.70;;;3.10;;
38240;SDS011;24037;49.536;8.500;2022-11-15T17:39:48;8.73;;;4.97;;
38240;SDS011;24037;49.536;8.500;2022-11-15T17:42:14;6.97;;;4.07;;
38240;SDS011;24037;49.536;8.500;2022-11-15T17:44:40;8.38;;;4.20;;
38240;SDS011;24037;49.536;8.500;2022-11-15T17:47:07;5.10;;;2.85;;
38240;SDS011;24037;49.536;8.500;2022-11-15T17:49:33;5.20;;;2.70;;
38240;SDS011;24037;49.536;8.500;2022-11-15T17:52:04;8.43;;;3.38;;
38240;SDS011;24037;49.536;8.500;2022-11-15T17:54:30;11.98;;;5.60;;
38240;SDS011;24037;49.536;8.500;2022-11-15T17:56:56;7.00;;;4.10;;